Terminal Aerodrome Forecast
Issued by NWS

Home | Current Version | Previous Version | Text Only | Print | Product List | Glossary On
Versions: 1 2 3 4 5 6 7 8 9 10 11 12 13 14 15 16 17 18 19 20 21 22
000
FTUS43 KJKL 230700 AAA
TAFSJS
TAF AMD
KSJS 230705Z 2307/2406 VRB03KT P6SM SKC
     FM230830 VRB03KT 5SM BR SKC
     FM230900 VRB03KT 2SM BR FEW003 SCT045
     FM231000 25006KT P6SM VCSH BKN050
     FM231800 29005KT 3SM -TSRA BKN030CB
     FM232200 29009KT P6SM VCTS BKN020CB=

USA.gov is the U.S. government's official web portal to all federal, state and local government web resources and services.